sensor_id;sensor_type;location;lat;lon;timestamp;P1;durP1;ratioP1;P2;durP2;ratioP2
34775;SDS011;20989;52.566;13.346;2022-09-13T00:02:30;0.88;;;0.88;;
34775;SDS011;20989;52.566;13.346;2022-09-13T00:05:31;1.50;;;0.75;;
34775;SDS011;20989;52.566;13.346;2022-09-13T00:08:32;0.77;;;0.77;;
34775;SDS011;20989;52.566;13.346;2022-09-13T00:11:32;0.73;;;0.73;;
34775;SDS011;20989;52.566;13.346;2022-09-13T00:14:33;0.50;;;0.50;;
34775;SDS011;20989;52.566;13.346;2022-09-13T00:17:34;1.13;;;0.68;;
34775;SDS011;20989;52.566;13.346;2022-09-13T00:20:35;0.70;;;0.70;;
34775;SDS011;20989;52.566;13.346;2022-09-13T00:23:36;0.70;;;0.70;;
34775;SDS011;20989;52.566;13.346;2022-09-13T00:26:37;0.70;;;0.70;;
34775;SDS011;20989;52.566;13.346;2022-09-13T00:29:38;0.80;;;0.80;;
34775;SDS011;20989;52.566;13.346;2022-09-13T00:32:38;0.55;;;0.55;;
34775;SDS011;20989;52.566;13.346;2022-09-13T00:35:39;0.73;;;0.73;;
34775;SDS011;20989;52.566;13.346;2022-09-13T00:38:40;0.70;;;0.70;;
34775;SDS011;20989;52.566;13.346;2022-09-13T00:41:41;0.70;;;0.70;;
34775;SDS011;20989;52.566;13.346;2022-09-13T00:47:57;0.50;;;0.50;;
34775;SDS011;20989;52.566;13.346;2022-09-13T00:51:00;0.45;;;0.45;;
34775;SDS011;20989;52.566;13.346;2022-09-13T00:54:03;0.68;;;0.68;;
34775;SDS011;20989;52.566;13.346;2022-09-13T00:57:04;0.50;;;0.50;;
34775;SDS011;20989;52.566;13.346;2022-09-13T01:00:10;0.57;;;0.55;;
34775;SDS011;20989;52.566;13.346;2022-09-13T01:03:14;0.80;;;0.80;;
34775;SDS011;20989;52.566;13.346;2022-09-13T01:06:19;0.50;;;0.50;;
34775;SDS011;20989;52.566;13.346;2022-09-13T01:09:26;0.70;;;0.70;;
34775;SDS011;20989;52.566;13.346;2022-09-13T01:18:36;0.70;;;0.70;;
34775;SDS011;20989;52.566;13.346;2022-09-13T01:45:02;0.70;;;0.70;;
34775;SDS011;20989;52.566;13.346;2022-09-13T01:48:28;0.73;;;0.73;;
34775;SDS011;20989;52.566;13.346;2022-09-13T01:58:26;0.55;;;0.55;;
34775;SDS011;20989;52.566;13.346;2022-09-13T02:01:32;0.60;;;0.60;;
34775;SDS011;20989;52.566;13.346;2022-09-13T02:04:37;0.82;;;0.82;;
34775;SDS011;20989;52.566;13.346;2022-09-13T02:07:42;0.60;;;0.60;;
34775;SDS011;20989;52.566;13.346;2022-09-13T02:10:58;0.60;;;0.60;;
34775;SDS011;20989;52.566;13.346;2022-09-13T02:17:15;0.50;;;0.50;;
34775;SDS011;20989;52.566;13.346;2022-09-13T02:20:32;0.80;;;0.80;;
34775;SDS011;20989;52.566;13.346;2022-09-13T02:24:00;0.60;;;0.60;;
34775;SDS011;20989;52.566;13.346;2022-09-13T02:27:02;0.70;;;0.70;;
34775;SDS011;20989;52.566;13.346;2022-09-13T02:30:09;0.60;;;0.60;;
34775;SDS011;20989;52.566;13.346;2022-09-13T02:33:13;0.80;;;0.80;;
34775;SDS011;20989;52.566;13.346;2022-09-13T02:36:28;0.60;;;0.57;;
34775;SDS011;20989;52.566;13.346;2022-09-13T02:39:32;0.55;;;0.55;;
34775;SDS011;20989;52.566;13.346;2022-09-13T02:42:40;0.63;;;0.63;;
34775;SDS011;20989;52.566;13.346;2022-09-13T02:45:49;0.68;;;0.68;;
34775;SDS011;20989;52.566;13.346;2022-09-13T02:49:06;0.75;;;0.75;;
34775;SDS011;20989;52.566;13.346;2022-09-13T02:52:18;0.68;;;0.68;;
34775;SDS011;20989;52.566;13.346;2022-09-13T02:55:39;0.60;;;0.60;;
34775;SDS011;20989;52.566;13.346;2022-09-13T02:59:24;0.70;;;0.70;;
34775;SDS011;20989;52.566;13.346;2022-09-13T03:02:12;0.60;;;0.60;;
34775;SDS011;20989;52.566;13.346;2022-09-13T03:05:15;0.70;;;0.70;;
34775;SDS011;20989;52.566;13.346;2022-09-13T03:08:16;0.70;;;0.70;;
34775;SDS011;20989;52.566;13.346;2022-09-13T03:11:28;0.70;;;0.70;;
34775;SDS011;20989;52.566;13.346;2022-09-13T03:38:12;0.70;;;0.70;;
34775;SDS011;20989;52.566;13.346;2022-09-13T03:41:19;0.50;;;0.50;;
34775;SDS011;20989;52.566;13.346;2022-09-13T03:44:23;0.68;;;0.68;;
34775;SDS011;20989;52.566;13.346;2022-09-13T03:47:26;0.65;;;0.65;;
34775;SDS011;20989;52.566;13.346;2022-09-13T03:50:30;0.52;;;0.52;;
34775;SDS011;20989;52.566;13.346;2022-09-13T03:53:32;0.68;;;0.68;;
34775;SDS011;20989;52.566;13.346;2022-09-13T03:56:38;0.80;;;0.80;;
34775;SDS011;20989;52.566;13.346;2022-09-13T03:59:40;0.45;;;0.45;;
34775;SDS011;20989;52.566;13.346;2022-09-13T04:02:50;0.50;;;0.50;;
34775;SDS011;20989;52.566;13.346;2022-09-13T04:05:50;0.60;;;0.60;;
34775;SDS011;20989;52.566;13.346;2022-09-13T04:08:51;0.65;;;0.65;;
34775;SDS011;20989;52.566;13.346;2022-09-13T04:11:52;0.50;;;0.50;;
34775;SDS011;20989;52.566;13.346;2022-09-13T04:14:52;0.50;;;0.50;;
34775;SDS011;20989;52.566;13.346;2022-09-13T04:17:53;0.60;;;0.60;;
34775;SDS011;20989;52.566;13.346;2022-09-13T04:20:54;0.50;;;0.50;;
34775;SDS011;20989;52.566;13.346;2022-09-13T04:23:56;0.63;;;0.63;;
34775;SDS011;20989;52.566;13.346;2022-09-13T04:26:56;0.50;;;0.50;;
34775;SDS011;20989;52.566;13.346;2022-09-13T04:29:57;0.57;;;0.57;;
34775;SDS011;20989;52.566;13.346;2022-09-13T04:32:58;0.60;;;0.60;;
34775;SDS011;20989;52.566;13.346;2022-09-13T04:35:59;0.75;;;0.75;;
34775;SDS011;20989;52.566;13.346;2022-09-13T04:39:00;0.60;;;0.60;;
34775;SDS011;20989;52.566;13.346;2022-09-13T04:42:01;0.50;;;0.50;;
34775;SDS011;20989;52.566;13.346;2022-09-13T04:45:02;0.57;;;0.57;;
34775;SDS011;20989;52.566;13.346;2022-09-13T04:48:03;0.60;;;0.60;;
34775;SDS011;20989;52.566;13.346;2022-09-13T04:51:04;0.60;;;0.60;;
34775;SDS011;20989;52.566;13.346;2022-09-13T04:54:05;0.60;;;0.60;;
34775;SDS011;20989;52.566;13.346;2022-09-13T04:57:06;0.50;;;0.50;;
34775;SDS011;20989;52.566;13.346;2022-09-13T05:03:38;0.52;;;0.52;;
34775;SDS011;20989;52.566;13.346;2022-09-13T05:06:38;0.63;;;0.63;;
34775;SDS011;20989;52.566;13.346;2022-09-13T05:09:39;0.63;;;0.63;;
34775;SDS011;20989;52.566;13.346;2022-09-13T05:12:40;0.50;;;0.50;;
34775;SDS011;20989;52.566;13.346;2022-09-13T05:15:40;0.73;;;0.73;;
34775;SDS011;20989;52.566;13.346;2022-09-13T05:18:41;0.70;;;0.70;;
34775;SDS011;20989;52.566;13.346;2022-09-13T05:21:42;0.50;;;0.50;;
34775;SDS011;20989;52.566;13.346;2022-09-13T05:24:42;0.60;;;0.60;;
34775;SDS011;20989;52.566;13.346;2022-09-13T05:27:44;0.55;;;0.55;;
34775;SDS011;20989;52.566;13.346;2022-09-13T05:30:52;0.60;;;0.60;;
34775;SDS011;20989;52.566;13.346;2022-09-13T05:33:56;0.77;;;0.60;;
34775;SDS011;20989;52.566;13.346;2022-09-13T05:36:58;0.80;;;0.80;;
34775;SDS011;20989;52.566;13.346;2022-09-13T05:39:59;0.93;;;0.45;;
34775;SDS011;20989;52.566;13.346;2022-09-13T05:42:59;0.60;;;0.60;;
34775;SDS011;20989;52.566;13.346;2022-09-13T05:46:04;0.45;;;0.45;;
34775;SDS011;20989;52.566;13.346;2022-09-13T05:49:06;0.63;;;0.63;;
34775;SDS011;20989;52.566;13.346;2022-09-13T05:52:07;0.60;;;0.60;;
34775;SDS011;20989;52.566;13.346;2022-09-13T05:55:08;0.50;;;0.50;;
34775;SDS011;20989;52.566;13.346;2022-09-13T05:58:08;0.52;;;0.52;;
34775;SDS011;20989;52.566;13.346;2022-09-13T06:01:10;0.52;;;0.52;;
34775;SDS011;20989;52.566;13.346;2022-09-13T06:04:11;0.60;;;0.60;;
34775;SDS011;20989;52.566;13.346;2022-09-13T06:07:13;0.45;;;0.45;;
34775;SDS011;20989;52.566;13.346;2022-09-13T06:10:14;0.70;;;0.70;;
34775;SDS011;20989;52.566;13.346;2022-09-13T06:13:15;0.80;;;0.80;;
34775;SDS011;20989;52.566;13.346;2022-09-13T06:16:15;0.60;;;0.60;;
34775;SDS011;20989;52.566;13.346;2022-09-13T06:19:16;0.60;;;0.60;;
34775;SDS011;20989;52.566;13.346;2022-09-13T06:22:17;0.70;;;0.70;;
34775;SDS011;20989;52.566;13.346;2022-09-13T06:25:18;0.60;;;0.60;;
34775;SDS011;20989;52.566;13.346;2022-09-13T06:28:19;0.70;;;0.70;;
34775;SDS011;20989;52.566;13.346;2022-09-13T06:31:20;0.70;;;0.70;;
34775;SDS011;20989;52.566;13.346;2022-09-13T06:34:23;0.60;;;0.60;;
34775;SDS011;20989;52.566;13.346;2022-09-13T06:37:24;0.50;;;0.50;;
34775;SDS011;20989;52.566;13.346;2022-09-13T06:40:24;0.70;;;0.70;;
34775;SDS011;20989;52.566;13.346;2022-09-13T06:43:25;0.60;;;0.60;;
34775;SDS011;20989;52.566;13.346;2022-09-13T06:46:27;0.70;;;0.70;;
34775;SDS011;20989;52.566;13.346;2022-09-13T06:49:30;0.70;;;0.70;;
34775;SDS011;20989;52.566;13.346;2022-09-13T06:52:31;0.88;;;0.88;;
34775;SDS011;20989;52.566;13.346;2022-09-13T06:55:32;0.70;;;0.70;;
34775;SDS011;20989;52.566;13.346;2022-09-13T06:58:33;0.75;;;0.75;;
34775;SDS011;20989;52.566;13.346;2022-09-13T07:01:35;0.70;;;0.70;;
34775;SDS011;20989;52.566;13.346;2022-09-13T07:04:38;0.70;;;0.70;;
34775;SDS011;20989;52.566;13.346;2022-09-13T07:07:38;0.93;;;0.63;;
34775;SDS011;20989;52.566;13.346;2022-09-13T07:10:39;0.80;;;0.70;;
34775;SDS011;20989;52.566;13.346;2022-09-13T07:13:40;0.65;;;0.65;;
34775;SDS011;20989;52.566;13.346;2022-09-13T07:16:41;1.02;;;0.50;;
34775;SDS011;20989;52.566;13.346;2022-09-13T07:19:42;0.68;;;0.68;;
34775;SDS011;20989;52.566;13.346;2022-09-13T07:22:42;0.70;;;0.70;;
34775;SDS011;20989;52.566;13.346;2022-09-13T07:25:43;0.65;;;0.65;;
34775;SDS011;20989;52.566;13.346;2022-09-13T07:28:55;0.52;;;0.52;;
34775;SDS011;20989;52.566;13.346;2022-09-13T07:31:57;0.85;;;0.85;;
34775;SDS011;20989;52.566;13.346;2022-09-13T07:34:59;0.65;;;0.65;;
34775;SDS011;20989;52.566;13.346;2022-09-13T07:37:59;0.50;;;0.50;;
34775;SDS011;20989;52.566;13.346;2022-09-13T07:41:01;0.60;;;0.60;;
34775;SDS011;20989;52.566;13.346;2022-09-13T07:44:05;0.80;;;0.80;;
34775;SDS011;20989;52.566;13.346;2022-09-13T07:47:07;1.02;;;0.80;;
34775;SDS011;20989;52.566;13.346;2022-09-13T07:50:07;0.50;;;0.50;;
34775;SDS011;20989;52.566;13.346;2022-09-13T07:53:08;0.73;;;0.73;;
34775;SDS011;20989;52.566;13.346;2022-09-13T07:56:10;0.60;;;0.60;;
34775;SDS011;20989;52.566;13.346;2022-09-13T07:59:15;0.75;;;0.75;;
34775;SDS011;20989;52.566;13.346;2022-09-13T08:02:16;0.60;;;0.60;;
34775;SDS011;20989;52.566;13.346;2022-09-13T08:05:17;0.65;;;0.65;;
34775;SDS011;20989;52.566;13.346;2022-09-13T08:08:18;0.63;;;0.63;;
34775;SDS011;20989;52.566;13.346;2022-09-13T08:11:23;0.60;;;0.60;;
34775;SDS011;20989;52.566;13.346;2022-09-13T08:14:26;0.50;;;0.50;;
34775;SDS011;20989;52.566;13.346;2022-09-13T08:17:27;0.70;;;0.70;;
34775;SDS011;20989;52.566;13.346;2022-09-13T08:20:28;0.63;;;0.63;;
34775;SDS011;20989;52.566;13.346;2022-09-13T08:23:29;0.80;;;0.80;;
34775;SDS011;20989;52.566;13.346;2022-09-13T08:26:31;0.90;;;0.90;;
34775;SDS011;20989;52.566;13.346;2022-09-13T08:29:33;0.63;;;0.63;;
34775;SDS011;20989;52.566;13.346;2022-09-13T08:32:33;0.80;;;0.80;;
34775;SDS011;20989;52.566;13.346;2022-09-13T08:35:34;0.75;;;0.75;;
34775;SDS011;20989;52.566;13.346;2022-09-13T08:38:35;0.70;;;0.63;;
34775;SDS011;20989;52.566;13.346;2022-09-13T08:44:43;0.70;;;0.70;;
34775;SDS011;20989;52.566;13.346;2022-09-13T08:47:50;0.52;;;0.52;;
34775;SDS011;20989;52.566;13.346;2022-09-13T08:50:57;0.70;;;0.70;;
34775;SDS011;20989;52.566;13.346;2022-09-13T08:54:03;0.60;;;0.60;;
34775;SDS011;20989;52.566;13.346;2022-09-13T09:00:26;0.55;;;0.55;;
34775;SDS011;20989;52.566;13.346;2022-09-13T09:03:45;0.70;;;0.70;;
34775;SDS011;20989;52.566;13.346;2022-09-13T09:07:11;0.60;;;0.60;;
34775;SDS011;20989;52.566;13.346;2022-09-13T09:13:40;0.82;;;0.82;;
34775;SDS011;20989;52.566;13.346;2022-09-13T09:16:54;0.82;;;0.82;;
34775;SDS011;20989;52.566;13.346;2022-09-13T09:20:33;1.02;;;1.02;;
34775;SDS011;20989;52.566;13.346;2022-09-13T09:23:35;0.80;;;0.80;;
34775;SDS011;20989;52.566;13.346;2022-09-13T09:26:38;0.73;;;0.73;;
34775;SDS011;20989;52.566;13.346;2022-09-13T09:29:39;0.93;;;0.93;;
34775;SDS011;20989;52.566;13.346;2022-09-13T09:32:46;0.90;;;0.90;;
34775;SDS011;20989;52.566;13.346;2022-09-13T09:39:28;0.60;;;0.60;;
34775;SDS011;20989;52.566;13.346;2022-09-13T09:42:42;0.70;;;0.70;;
34775;SDS011;20989;52.566;13.346;2022-09-13T09:45:45;0.70;;;0.70;;
34775;SDS011;20989;52.566;13.346;2022-09-13T09:48:53;1.08;;;0.90;;
34775;SDS011;20989;52.566;13.346;2022-09-13T09:51:56;0.70;;;0.70;;
34775;SDS011;20989;52.566;13.346;2022-09-13T09:54:59;0.93;;;0.93;;
34775;SDS011;20989;52.566;13.346;2022-09-13T09:58:11;0.70;;;0.70;;
34775;SDS011;20989;52.566;13.346;2022-09-13T10:01:20;0.77;;;0.77;;
34775;SDS011;20989;52.566;13.346;2022-09-13T10:04:57;0.80;;;0.80;;
34775;SDS011;20989;52.566;13.346;2022-09-13T10:08:03;1.00;;;1.00;;
34775;SDS011;20989;52.566;13.346;2022-09-13T10:11:06;0.70;;;0.70;;
34775;SDS011;20989;52.566;13.346;2022-09-13T10:24:19;0.98;;;0.98;;
34775;SDS011;20989;52.566;13.346;2022-09-13T10:30:55;0.93;;;0.93;;
34775;SDS011;20989;52.566;13.346;2022-09-13T10:34:00;0.88;;;0.88;;
34775;SDS011;20989;52.566;13.346;2022-09-13T10:37:09;1.10;;;1.10;;
34775;SDS011;20989;52.566;13.346;2022-09-13T10:43:47;1.17;;;1.08;;
34775;SDS011;20989;52.566;13.346;2022-09-13T10:46:58;0.80;;;0.80;;
34775;SDS011;20989;52.566;13.346;2022-09-13T10:50:15;0.90;;;0.90;;
34775;SDS011;20989;52.566;13.346;2022-09-13T10:56:38;1.15;;;1.15;;
34775;SDS011;20989;52.566;13.346;2022-09-13T10:59:39;0.88;;;0.88;;
34775;SDS011;20989;52.566;13.346;2022-09-13T11:12:52;1.30;;;1.30;;
34775;SDS011;20989;52.566;13.346;2022-09-13T11:19:10;1.10;;;1.10;;
34775;SDS011;20989;52.566;13.346;2022-09-13T11:35:52;1.35;;;1.30;;
34775;SDS011;20989;52.566;13.346;2022-09-13T11:39:01;1.42;;;1.33;;
34775;SDS011;20989;52.566;13.346;2022-09-13T11:42:38;0.82;;;0.82;;
34775;SDS011;20989;52.566;13.346;2022-09-13T11:49:51;1.70;;;1.40;;
34775;SDS011;20989;52.566;13.346;2022-09-13T11:53:23;1.40;;;1.30;;
34775;SDS011;20989;52.566;13.346;2022-09-13T11:59:40;1.33;;;1.27;;
34775;SDS011;20989;52.566;13.346;2022-09-13T12:06:29;1.15;;;1.05;;
34775;SDS011;20989;52.566;13.346;2022-09-13T12:09:46;1.13;;;1.13;;
34775;SDS011;20989;52.566;13.346;2022-09-13T12:12:55;1.30;;;1.30;;
34775;SDS011;20989;52.566;13.346;2022-09-13T12:16:01;1.10;;;1.10;;
34775;SDS011;20989;52.566;13.346;2022-09-13T12:22:19;1.10;;;1.10;;
34775;SDS011;20989;52.566;13.346;2022-09-13T12:25:23;1.10;;;1.10;;
34775;SDS011;20989;52.566;13.346;2022-09-13T12:32:19;1.08;;;1.08;;
34775;SDS011;20989;52.566;13.346;2022-09-13T12:35:27;1.42;;;1.33;;
34775;SDS011;20989;52.566;13.346;2022-09-13T12:38:35;1.58;;;1.48;;
34775;SDS011;20989;52.566;13.346;2022-09-13T12:41:51;1.20;;;1.10;;
34775;SDS011;20989;52.566;13.346;2022-09-13T12:48:26;1.38;;;0.98;;
34775;SDS011;20989;52.566;13.346;2022-09-13T12:51:56;1.20;;;1.20;;
34775;SDS011;20989;52.566;13.346;2022-09-13T12:55:28;1.00;;;1.00;;
34775;SDS011;20989;52.566;13.346;2022-09-13T13:02:18;1.08;;;1.08;;
34775;SDS011;20989;52.566;13.346;2022-09-13T13:08:47;1.00;;;1.00;;
34775;SDS011;20989;52.566;13.346;2022-09-13T13:11:50;0.98;;;0.98;;
34775;SDS011;20989;52.566;13.346;2022-09-13T13:14:53;1.23;;;1.23;;
34775;SDS011;20989;52.566;13.346;2022-09-13T13:17:55;1.10;;;1.10;;
34775;SDS011;20989;52.566;13.346;2022-09-13T13:27:34;0.90;;;0.90;;
34775;SDS011;20989;52.566;13.346;2022-09-13T13:33:47;1.15;;;1.08;;
34775;SDS011;20989;52.566;13.346;2022-09-13T13:37:00;1.48;;;1.42;;
34775;SDS011;20989;52.566;13.346;2022-09-13T13:40:09;1.00;;;1.00;;
34775;SDS011;20989;52.566;13.346;2022-09-13T13:43:31;1.17;;;1.08;;
34775;SDS011;20989;52.566;13.346;2022-09-13T13:46:33;0.88;;;0.88;;
34775;SDS011;20989;52.566;13.346;2022-09-13T13:56:05;1.10;;;1.00;;
34775;SDS011;20989;52.566;13.346;2022-09-13T13:59:26;1.10;;;1.10;;
34775;SDS011;20989;52.566;13.346;2022-09-13T14:21:46;1.30;;;1.30;;
34775;SDS011;20989;52.566;13.346;2022-09-13T14:25:23;1.13;;;1.13;;
34775;SDS011;20989;52.566;13.346;2022-09-13T14:28:24;1.00;;;1.00;;
34775;SDS011;20989;52.566;13.346;2022-09-13T14:31:26;1.02;;;1.02;;
34775;SDS011;20989;52.566;13.346;2022-09-13T14:34:28;1.38;;;1.27;;
34775;SDS011;20989;52.566;13.346;2022-09-13T14:37:33;0.98;;;0.98;;
34775;SDS011;20989;52.566;13.346;2022-09-13T14:40:35;1.20;;;1.20;;
34775;SDS011;20989;52.566;13.346;2022-09-13T14:43:37;1.38;;;1.27;;
34775;SDS011;20989;52.566;13.346;2022-09-13T14:46:39;1.10;;;1.10;;
34775;SDS011;20989;52.566;13.346;2022-09-13T14:49:44;1.40;;;1.30;;
34775;SDS011;20989;52.566;13.346;2022-09-13T14:52:56;1.40;;;1.30;;
34775;SDS011;20989;52.566;13.346;2022-09-13T14:56:10;1.50;;;1.40;;
34775;SDS011;20989;52.566;13.346;2022-09-13T14:59:26;1.08;;;1.08;;
34775;SDS011;20989;52.566;13.346;2022-09-13T15:02:36;1.35;;;1.25;;
34775;SDS011;20989;52.566;13.346;2022-09-13T15:05:38;0.90;;;0.90;;
34775;SDS011;20989;52.566;13.346;2022-09-13T15:08:42;1.00;;;1.00;;
34775;SDS011;20989;52.566;13.346;2022-09-13T15:21:22;0.90;;;0.90;;
34775;SDS011;20989;52.566;13.346;2022-09-13T15:24:27;1.10;;;1.00;;
34775;SDS011;20989;52.566;13.346;2022-09-13T15:27:50;1.25;;;1.20;;
34775;SDS011;20989;52.566;13.346;2022-09-13T15:30:52;1.40;;;1.30;;
34775;SDS011;20989;52.566;13.346;2022-09-13T15:37:30;1.73;;;1.63;;
34775;SDS011;20989;52.566;13.346;2022-09-13T15:40:42;1.00;;;1.00;;
34775;SDS011;20989;52.566;13.346;2022-09-13T15:43:46;1.15;;;1.15;;
34775;SDS011;20989;52.566;13.346;2022-09-13T15:46:49;1.50;;;1.40;;
34775;SDS011;20989;52.566;13.346;2022-09-13T15:49:52;1.40;;;1.30;;
34775;SDS011;20989;52.566;13.346;2022-09-13T15:52:54;1.20;;;1.20;;
34775;SDS011;20989;52.566;13.346;2022-09-13T15:55:55;0.90;;;0.90;;
34775;SDS011;20989;52.566;13.346;2022-09-13T15:58:56;1.30;;;1.30;;
34775;SDS011;20989;52.566;13.346;2022-09-13T16:01:57;1.00;;;1.00;;
34775;SDS011;20989;52.566;13.346;2022-09-13T16:05:00;1.02;;;1.02;;
34775;SDS011;20989;52.566;13.346;2022-09-13T16:08:02;1.45;;;1.35;;
34775;SDS011;20989;52.566;13.346;2022-09-13T16:11:03;1.10;;;1.10;;
34775;SDS011;20989;52.566;13.346;2022-09-13T16:14:04;1.10;;;1.10;;
34775;SDS011;20989;52.566;13.346;2022-09-13T16:17:09;0.82;;;0.82;;
34775;SDS011;20989;52.566;13.346;2022-09-13T16:20:13;0.95;;;0.95;;
34775;SDS011;20989;52.566;13.346;2022-09-13T16:23:14;1.13;;;1.13;;
34775;SDS011;20989;52.566;13.346;2022-09-13T16:26:15;0.90;;;0.90;;
34775;SDS011;20989;52.566;13.346;2022-09-13T16:29:16;1.05;;;1.00;;
34775;SDS011;20989;52.566;13.346;2022-09-13T16:32:17;0.80;;;0.80;;
34775;SDS011;20989;52.566;13.346;2022-09-13T16:35:18;1.13;;;1.13;;
34775;SDS011;20989;52.566;13.346;2022-09-13T16:38:18;1.10;;;0.93;;
34775;SDS011;20989;52.566;13.346;2022-09-13T16:41:19;0.95;;;0.95;;
34775;SDS011;20989;52.566;13.346;2022-09-13T16:44:20;1.00;;;1.00;;
34775;SDS011;20989;52.566;13.346;2022-09-13T16:47:21;1.17;;;1.17;;
34775;SDS011;20989;52.566;13.346;2022-09-13T16:50:21;0.80;;;0.80;;
34775;SDS011;20989;52.566;13.346;2022-09-13T16:53:22;0.98;;;0.98;;
34775;SDS011;20989;52.566;13.346;2022-09-13T16:56:23;0.80;;;0.80;;
34775;SDS011;20989;52.566;13.346;2022-09-13T16:59:25;0.80;;;0.80;;
34775;SDS011;20989;52.566;13.346;2022-09-13T17:02:26;1.10;;;1.10;;
34775;SDS011;20989;52.566;13.346;2022-09-13T17:05:26;1.00;;;1.00;;
34775;SDS011;20989;52.566;13.346;2022-09-13T17:08:27;1.00;;;1.00;;
34775;SDS011;20989;52.566;13.346;2022-09-13T17:11:29;0.75;;;0.75;;
34775;SDS011;20989;52.566;13.346;2022-09-13T17:14:34;0.90;;;0.90;;
34775;SDS011;20989;52.566;13.346;2022-09-13T17:17:37;0.85;;;0.85;;
34775;SDS011;20989;52.566;13.346;2022-09-13T17:20:44;1.13;;;1.08;;
34775;SDS011;20989;52.566;13.346;2022-09-13T17:23:46;1.05;;;1.05;;
34775;SDS011;20989;52.566;13.346;2022-09-13T17:26:47;0.93;;;0.93;;
34775;SDS011;20989;52.566;13.346;2022-09-13T17:29:47;1.00;;;1.00;;
34775;SDS011;20989;52.566;13.346;2022-09-13T17:32:48;0.93;;;0.88;;
34775;SDS011;20989;52.566;13.346;2022-09-13T17:36:11;0.80;;;0.80;;
34775;SDS011;20989;52.566;13.346;2022-09-13T17:39:10;1.10;;;1.00;;
34775;SDS011;20989;52.566;13.346;2022-09-13T17:42:11;1.10;;;1.10;;
34775;SDS011;20989;52.566;13.346;2022-09-13T17:45:12;0.90;;;0.90;;
34775;SDS011;20989;52.566;13.346;2022-09-13T17:48:14;1.05;;;1.05;;
34775;SDS011;20989;52.566;13.346;2022-09-13T17:51:16;0.90;;;0.90;;
34775;SDS011;20989;52.566;13.346;2022-09-13T17:54:18;0.93;;;0.93;;
34775;SDS011;20989;52.566;13.346;2022-09-13T17:57:19;1.33;;;1.13;;
34775;SDS011;20989;52.566;13.346;2022-09-13T18:00:20;0.80;;;0.80;;
34775;SDS011;20989;52.566;13.346;2022-09-13T18:03:22;1.00;;;1.00;;
34775;SDS011;20989;52.566;13.346;2022-09-13T18:06:23;1.17;;;1.17;;
34775;SDS011;20989;52.566;13.346;2022-09-13T18:09:23;0.90;;;0.90;;
34775;SDS011;20989;52.566;13.346;2022-09-13T18:12:25;0.88;;;0.88;;
34775;SDS011;20989;52.566;13.346;2022-09-13T18:15:25;1.38;;;0.95;;
34775;SDS011;20989;52.566;13.346;2022-09-13T18:18:26;0.77;;;0.77;;
34775;SDS011;20989;52.566;13.346;2022-09-13T18:21:27;0.90;;;0.90;;
34775;SDS011;20989;52.566;13.346;2022-09-13T18:24:28;0.82;;;0.82;;
34775;SDS011;20989;52.566;13.346;2022-09-13T18:27:29;0.95;;;0.95;;
34775;SDS011;20989;52.566;13.346;2022-09-13T18:30:30;1.13;;;1.10;;
34775;SDS011;20989;52.566;13.346;2022-09-13T18:33:31;0.95;;;0.95;;
34775;SDS011;20989;52.566;13.346;2022-09-13T18:36:32;0.80;;;0.80;;
34775;SDS011;20989;52.566;13.346;2022-09-13T18:39:34;0.95;;;0.95;;
34775;SDS011;20989;52.566;13.346;2022-09-13T18:42:35;0.90;;;0.90;;
34775;SDS011;20989;52.566;13.346;2022-09-13T18:45:35;0.95;;;0.95;;
34775;SDS011;20989;52.566;13.346;2022-09-13T18:48:37;0.80;;;0.80;;
34775;SDS011;20989;52.566;13.346;2022-09-13T18:51:42;0.95;;;0.95;;
34775;SDS011;20989;52.566;13.346;2022-09-13T18:54:44;1.10;;;1.10;;
34775;SDS011;20989;52.566;13.346;2022-09-13T18:57:44;0.90;;;0.90;;
34775;SDS011;20989;52.566;13.346;2022-09-13T19:00:45;0.90;;;0.90;;
34775;SDS011;20989;52.566;13.346;2022-09-13T19:03:56;0.80;;;0.80;;
34775;SDS011;20989;52.566;13.346;2022-09-13T19:06:57;0.70;;;0.70;;
34775;SDS011;20989;52.566;13.346;2022-09-13T19:09:58;0.80;;;0.80;;
34775;SDS011;20989;52.566;13.346;2022-09-13T19:12:58;0.73;;;0.73;;
34775;SDS011;20989;52.566;13.346;2022-09-13T19:15:59;0.88;;;0.88;;
34775;SDS011;20989;52.566;13.346;2022-09-13T19:19:01;0.85;;;0.85;;
34775;SDS011;20989;52.566;13.346;2022-09-13T19:22:02;0.63;;;0.63;;
34775;SDS011;20989;52.566;13.346;2022-09-13T19:25:03;0.80;;;0.80;;
34775;SDS011;20989;52.566;13.346;2022-09-13T19:28:04;1.00;;;1.00;;
34775;SDS011;20989;52.566;13.346;2022-09-13T19:31:06;0.70;;;0.70;;
34775;SDS011;20989;52.566;13.346;2022-09-13T19:34:09;0.75;;;0.75;;
34775;SDS011;20989;52.566;13.346;2022-09-13T19:37:10;1.00;;;1.00;;
34775;SDS011;20989;52.566;13.346;2022-09-13T19:40:10;0.75;;;0.75;;
34775;SDS011;20989;52.566;13.346;2022-09-13T19:43:11;0.70;;;0.70;;
34775;SDS011;20989;52.566;13.346;2022-09-13T19:46:14;0.73;;;0.73;;
34775;SDS011;20989;52.566;13.346;2022-09-13T19:49:19;0.88;;;0.88;;
34775;SDS011;20989;52.566;13.346;2022-09-13T19:52:19;0.60;;;0.60;;
34775;SDS011;20989;52.566;13.346;2022-09-13T19:55:20;0.80;;;0.80;;
34775;SDS011;20989;52.566;13.346;2022-09-13T19:58:22;0.65;;;0.65;;
34775;SDS011;20989;52.566;13.346;2022-09-13T20:01:24;0.93;;;0.93;;
34775;SDS011;20989;52.566;13.346;2022-09-13T20:04:26;0.75;;;0.75;;
34775;SDS011;20989;52.566;13.346;2022-09-13T20:07:28;0.90;;;0.90;;
34775;SDS011;20989;52.566;13.346;2022-09-13T20:10:29;0.80;;;0.80;;
34775;SDS011;20989;52.566;13.346;2022-09-13T20:13:30;0.90;;;0.90;;
34775;SDS011;20989;52.566;13.346;2022-09-13T20:16:32;0.70;;;0.70;;
34775;SDS011;20989;52.566;13.346;2022-09-13T20:19:34;0.77;;;0.77;;
34775;SDS011;20989;52.566;13.346;2022-09-13T20:22:35;0.80;;;0.80;;
34775;SDS011;20989;52.566;13.346;2022-09-13T20:25:35;0.75;;;0.75;;
34775;SDS011;20989;52.566;13.346;2022-09-13T20:28:39;0.80;;;0.80;;
34775;SDS011;20989;52.566;13.346;2022-09-13T20:31:40;0.70;;;0.70;;
34775;SDS011;20989;52.566;13.346;2022-09-13T20:34:41;0.77;;;0.77;;
34775;SDS011;20989;52.566;13.346;2022-09-13T20:37:43;0.77;;;0.77;;
34775;SDS011;20989;52.566;13.346;2022-09-13T20:40:45;0.80;;;0.80;;
34775;SDS011;20989;52.566;13.346;2022-09-13T20:43:46;1.10;;;1.10;;
34775;SDS011;20989;52.566;13.346;2022-09-13T20:46:47;0.80;;;0.80;;
34775;SDS011;20989;52.566;13.346;2022-09-13T20:49:48;0.50;;;0.50;;
34775;SDS011;20989;52.566;13.346;2022-09-13T20:52:49;0.70;;;0.70;;
34775;SDS011;20989;52.566;13.346;2022-09-13T20:55:49;0.70;;;0.70;;
34775;SDS011;20989;52.566;13.346;2022-09-13T20:58:52;0.70;;;0.70;;
34775;SDS011;20989;52.566;13.346;2022-09-13T21:01:53;0.63;;;0.63;;
34775;SDS011;20989;52.566;13.346;2022-09-13T21:04:55;0.70;;;0.70;;
34775;SDS011;20989;52.566;13.346;2022-09-13T21:07:55;0.60;;;0.60;;
34775;SDS011;20989;52.566;13.346;2022-09-13T21:11:16;0.85;;;0.85;;
34775;SDS011;20989;52.566;13.346;2022-09-13T21:14:19;0.77;;;0.77;;
34775;SDS011;20989;52.566;13.346;2022-09-13T21:17:20;0.50;;;0.50;;
34775;SDS011;20989;52.566;13.346;2022-09-13T21:20:21;1.05;;;0.63;;
34775;SDS011;20989;52.566;13.346;2022-09-13T21:23:22;0.70;;;0.70;;
34775;SDS011;20989;52.566;13.346;2022-09-13T21:26:24;0.80;;;0.80;;
34775;SDS011;20989;52.566;13.346;2022-09-13T21:29:26;0.82;;;0.82;;
34775;SDS011;20989;52.566;13.346;2022-09-13T21:32:28;0.50;;;0.50;;
34775;SDS011;20989;52.566;13.346;2022-09-13T21:35:28;0.60;;;0.60;;
34775;SDS011;20989;52.566;13.346;2022-09-13T21:38:29;0.70;;;0.70;;
34775;SDS011;20989;52.566;13.346;2022-09-13T21:41:31;0.70;;;0.70;;